createdAt,value
2023-10-18T00:00:30.259Z,100352.72
2023-10-18T00:02:59.329Z,100342.78
2023-10-18T00:05:27.733Z,100337.84
2023-10-18T00:07:58.919Z,100341.81
2023-10-18T00:10:28.525Z,100337.88
2023-10-18T00:12:57.772Z,100337.53
2023-10-18T00:15:26.220Z,100341.75
2023-10-18T00:17:55.147Z,100337.06
2023-10-18T00:20:25.352Z,100331.09
2023-10-18T00:22:54.533Z,100334.63
2023-10-18T00:25:25.286Z,100336.13
2023-10-18T00:27:53.634Z,100324.72
2023-10-18T00:30:22.505Z,100321.25
2023-10-18T00:32:51.011Z,100316.28
2023-10-18T00:35:22.516Z,100315.56
2023-10-18T00:37:56.207Z,100315.09
2023-10-18T00:40:36.013Z,100317.84
2023-10-18T00:43:12.763Z,100310.63
2023-10-18T00:45:45.579Z,100307.88
2023-10-18T00:48:14.792Z,100306.16
2023-10-18T00:50:46.717Z,100308.41
2023-10-18T00:53:20.942Z,100307.16
2023-10-18T00:55:54.317Z,100300.59
2023-10-18T00:58:24.573Z,100301.81
2023-10-18T01:00:54.143Z,100297.13
2023-10-18T01:03:34.027Z,100301.81
2023-10-18T01:06:06.170Z,100292.63
2023-10-18T01:08:38.890Z,100285.44
2023-10-18T01:11:11.428Z,100287.22
2023-10-18T01:13:43.264Z,100284.78
2023-10-18T01:16:16.158Z,100280.84
2023-10-18T01:18:45.546Z,100268.94
2023-10-18T01:21:19.509Z,100267.94
2023-10-18T01:23:52.259Z,100265.00
2023-10-18T01:26:23.552Z,100266.75
2023-10-18T01:28:53.816Z,100261.53
2023-10-18T01:31:22.676Z,100264.28
2023-10-18T01:33:52.745Z,100254.56
2023-10-18T01:36:23.321Z,100253.72
2023-10-18T01:38:56.316Z,100243.03
2023-10-18T01:41:30.208Z,100251.47
2023-10-18T01:44:07.042Z,100247.53
2023-10-18T01:46:36.187Z,100244.09
2023-10-18T01:49:06.449Z,100242.81
2023-10-18T01:51:36.124Z,100246.09
2023-10-18T01:54:06.664Z,100237.88
2023-10-18T01:56:36.669Z,100231.91
2023-10-18T01:59:16.023Z,100232.84
2023-10-18T02:01:46.566Z,100236.03
2023-10-18T02:04:33.092Z,100238.06
2023-10-18T02:07:09.182Z,100233.59
2023-10-18T02:09:45.455Z,100229.13
2023-10-18T02:12:20.907Z,100232.16
2023-10-18T02:14:51.599Z,100220.75
2023-10-18T02:17:21.198Z,100219.78
2023-10-18T02:19:49.688Z,100218.31
2023-10-18T02:22:20.644Z,100223.50
2023-10-18T02:24:51.700Z,100222.03
2023-10-18T02:27:24.475Z,100219.56
2023-10-18T02:29:53.374Z,100225.31
2023-10-18T02:32:33.811Z,100227.56
2023-10-18T02:35:05.732Z,100217.41
2023-10-18T02:37:34.246Z,100212.94
2023-10-18T02:40:10.041Z,100219.44
2023-10-18T02:42:40.188Z,100219.91
2023-10-18T02:45:14.439Z,100227.38
2023-10-18T02:47:46.688Z,100227.63
2023-10-18T02:50:16.800Z,100222.91
2023-10-18T02:52:47.295Z,100210.25
2023-10-18T02:55:18.920Z,100209.25
2023-10-18T02:57:49.604Z,100199.53
2023-10-18T03:00:19.147Z,100194.06
2023-10-18T03:02:47.538Z,100191.81
2023-10-18T03:05:19.870Z,100191.06
2023-10-18T03:07:48.290Z,100185.63
2023-10-18T03:10:26.966Z,100190.84
2023-10-18T03:12:56.905Z,100195.06
2023-10-18T03:15:25.374Z,100198.72
2023-10-18T03:17:57.109Z,100199.19
2023-10-18T03:20:25.425Z,100187.78
2023-10-18T03:22:56.872Z,100186.81
2023-10-18T03:25:29.275Z,100189.53
2023-10-18T03:28:02.202Z,100189.81
2023-10-18T03:30:46.156Z,100194.31
2023-10-18T03:33:16.214Z,100178.88
2023-10-18T03:35:48.034Z,100174.69
2023-10-18T03:38:18.972Z,100166.00
2023-10-18T03:40:51.037Z,100163.06
2023-10-18T03:43:27.632Z,100157.09
2023-10-18T03:46:11.489Z,100165.28
2023-10-18T03:48:45.860Z,100154.81
2023-10-18T03:51:21.151Z,100146.09
2023-10-18T03:53:53.885Z,100147.09
2023-10-18T03:56:24.317Z,100133.88
2023-10-18T03:59:01.968Z,100125.66
2023-10-18T04:01:40.929Z,100126.94
2023-10-18T04:04:10.287Z,100131.91
2023-10-18T04:06:38.630Z,100135.16
2023-10-18T04:09:15.000Z,100114.47
2023-10-18T04:11:43.828Z,100112.94
2023-10-18T04:14:17.936Z,100120.09
2023-10-18T04:16:48.583Z,100111.41
2023-10-18T04:19:26.963Z,100115.56
2023-10-18T04:21:55.864Z,100119.28
2023-10-18T04:24:26.297Z,100114.34
2023-10-18T04:26:57.636Z,100128.75
2023-10-18T04:29:34.148Z,100120.53
2023-10-18T04:32:06.986Z,100118.81
2023-10-18T04:34:35.468Z,100113.34
2023-10-18T04:37:06.461Z,100107.88
2023-10-18T04:39:35.845Z,100101.97
2023-10-18T04:42:07.946Z,100092.06
2023-10-18T04:44:39.233Z,100088.84
2023-10-18T04:47:15.608Z,100087.56
2023-10-18T04:49:51.729Z,100089.56
2023-10-18T04:52:29.627Z,100086.59
2023-10-18T04:55:01.798Z,100088.09
2023-10-18T04:57:32.330Z,100086.16
2023-10-18T05:00:11.949Z,100082.63
2023-10-18T05:02:40.450Z,100096.25
2023-10-18T05:05:11.782Z,100096.50
2023-10-18T05:07:55.688Z,100087.59
2023-10-18T05:10:26.161Z,100092.38
2023-10-18T05:13:02.814Z,100084.47
2023-10-18T05:15:33.921Z,100080.28
2023-10-18T05:18:06.932Z,100087.00
2023-10-18T05:20:56.553Z,100086.03
2023-10-18T05:23:25.517Z,100081.78
2023-10-18T05:26:05.431Z,100070.34
2023-10-18T05:28:44.411Z,100068.84
2023-10-18T05:31:45.490Z,100066.38
2023-10-18T05:34:23.574Z,100066.13
2023-10-18T05:36:59.075Z,100075.03
2023-10-18T05:39:37.810Z,100076.50
2023-10-18T05:42:05.372Z,100065.47
2023-10-18T05:44:33.919Z,100064.50
2023-10-18T05:47:07.780Z,100064.53
2023-10-18T05:49:42.564Z,100062.84
2023-10-18T05:52:37.710Z,100059.63
2023-10-18T05:55:13.497Z,100049.69
2023-10-18T05:57:43.321Z,100052.19
2023-10-18T06:00:19.117Z,100055.41
2023-10-18T06:02:53.659Z,100055.66
2023-10-18T06:05:22.515Z,100060.31
2023-10-18T06:07:51.367Z,100055.03
2023-10-18T06:10:24.639Z,100044.75
2023-10-18T06:12:57.466Z,100047.69
2023-10-18T06:15:35.991Z,100043.44
2023-10-18T06:18:07.222Z,100033.66
2023-10-18T06:20:38.565Z,100035.03
2023-10-18T06:23:11.031Z,100028.97
2023-10-18T06:25:46.051Z,100028.84
2023-10-18T06:28:21.988Z,100020.81
2023-10-18T06:30:53.068Z,100021.19
2023-10-18T06:33:23.615Z,100022.34
2023-10-18T06:35:55.115Z,100022.72
2023-10-18T06:38:25.459Z,100024.44
2023-10-18T06:41:06.750Z,100017.94
2023-10-18T06:43:38.021Z,100016.47
2023-10-18T06:46:10.176Z,100031.69
2023-10-18T06:48:40.731Z,100025.16
2023-10-18T06:51:18.502Z,100024.25
2023-10-18T06:53:54.937Z,100023.88
2023-10-18T06:56:23.276Z,100028.41
2023-10-18T06:58:51.710Z,100020.63
2023-10-18T07:01:31.569Z,100015.31
2023-10-18T07:04:02.384Z,100021.84
2023-10-18T07:06:36.828Z,100021.31
2023-10-18T07:09:17.559Z,100023.88
2023-10-18T07:11:52.233Z,100013.38
2023-10-18T07:14:22.292Z,100016.34
2023-10-18T07:16:55.791Z,100006.41
2023-10-18T07:19:32.078Z,100000.56
2023-10-18T07:22:06.948Z,100001.84
2023-10-18T07:24:38.194Z,100002.06
2023-10-18T07:27:10.599Z,99994.75
2023-10-18T07:29:38.961Z,99990.59
2023-10-18T07:32:14.656Z,99987.13
2023-10-18T07:34:45.870Z,99985.69
2023-10-18T07:37:21.158Z,99982.88
2023-10-18T07:39:50.525Z,99976.97
2023-10-18T07:42:20.218Z,99985.28
2023-10-18T07:44:54.500Z,99979.25
2023-10-18T07:47:27.011Z,99982.81
2023-10-18T07:49:59.538Z,99970.88
2023-10-18T07:52:28.529Z,99972.47
2023-10-18T07:54:57.714Z,99969.75
2023-10-18T07:57:34.858Z,99966.88
2023-10-18T08:00:28.001Z,99951.28
2023-10-18T08:02:57.696Z,99950.56
2023-10-18T08:05:32.189Z,99950.97
2023-10-18T08:08:10.382Z,99946.38
2023-10-18T08:10:40.226Z,99959.66
2023-10-18T08:13:12.185Z,99957.09
2023-10-18T08:15:51.953Z,99951.00
2023-10-18T08:18:23.220Z,99953.94
2023-10-18T08:21:07.651Z,99954.84
2023-10-18T08:23:39.818Z,99961.09
2023-10-18T08:26:08.761Z,99954.09
2023-10-18T08:28:43.632Z,99943.16
2023-10-18T08:31:16.652Z,99956.53
2023-10-18T08:33:48.327Z,99953.50
2023-10-18T08:36:19.795Z,99958.34
2023-10-18T08:38:48.215Z,99952.69
2023-10-18T08:41:17.474Z,99957.53
2023-10-18T08:44:01.256Z,99959.38
2023-10-18T08:46:30.285Z,99949.97
2023-10-18T08:49:00.316Z,99946.47
2023-10-18T08:51:31.435Z,99936.31
2023-10-18T08:54:03.963Z,99931.50
2023-10-18T08:56:34.682Z,99920.75
2023-10-18T08:59:12.620Z,99912.50
2023-10-18T09:02:01.617Z,99903.56
2023-10-18T09:04:30.028Z,99898.50
2023-10-18T09:07:02.218Z,99894.44
2023-10-18T09:09:36.587Z,99897.25
2023-10-18T09:12:16.914Z,99888.59
2023-10-18T09:14:51.846Z,99885.91
2023-10-18T09:17:24.559Z,99878.78
2023-10-18T09:19:57.156Z,99877.34
2023-10-18T09:22:27.484Z,99880.53
2023-10-18T09:24:56.766Z,99885.59
2023-10-18T09:27:28.375Z,99879.44
2023-10-18T09:29:56.784Z,99877.69
2023-10-18T09:32:34.488Z,99880.19
2023-10-18T09:35:09.178Z,99873.72
2023-10-18T09:37:39.885Z,99875.09
2023-10-18T09:40:13.148Z,99858.84
2023-10-18T09:42:41.923Z,99859.34
2023-10-18T09:45:10.865Z,99858.69
2023-10-18T09:47:39.623Z,99848.47
2023-10-18T09:50:10.806Z,99840.69
2023-10-18T09:52:52.695Z,99837.06
2023-10-18T09:55:21.951Z,99830.06
2023-10-18T09:58:04.038Z,99828.31
2023-10-18T10:00:42.022Z,99831.53
2023-10-18T10:03:13.623Z,99827.16
2023-10-18T10:05:44.579Z,99831.44
2023-10-18T10:08:15.835Z,99819.41
2023-10-18T10:10:48.034Z,99810.53
2023-10-18T10:13:20.947Z,99815.94
2023-10-18T10:15:55.984Z,99807.91
2023-10-18T10:18:31.633Z,99803.47
2023-10-18T10:21:07.442Z,99804.22
2023-10-18T10:23:40.303Z,99801.13
2023-10-18T10:26:32.602Z,99797.00
2023-10-18T10:29:32.500Z,99803.44
2023-10-18T10:32:05.840Z,99796.50
2023-10-18T10:34:40.170Z,99787.66
2023-10-18T10:37:10.603Z,99795.41
2023-10-18T10:39:46.575Z,99780.53
2023-10-18T10:42:29.727Z,99787.28
2023-10-18T10:45:06.385Z,99775.56
2023-10-18T10:47:44.107Z,99776.06
2023-10-18T10:50:33.185Z,99764.03
2023-10-18T10:53:06.305Z,99751.31
2023-10-18T10:55:37.068Z,99740.84
2023-10-18T10:58:17.166Z,99731.59
2023-10-18T11:01:05.900Z,99714.81
2023-10-18T11:03:54.991Z,99708.66
2023-10-18T11:06:24.716Z,99692.69
2023-10-18T11:08:53.934Z,99677.56
2023-10-18T11:11:24.421Z,99668.09
2023-10-18T11:13:53.322Z,99661.31
2023-10-18T11:16:23.139Z,99650.53
2023-10-18T11:18:54.261Z,99653.47
2023-10-18T11:21:25.989Z,99657.84
2023-10-18T11:23:58.638Z,99656.97
2023-10-18T11:26:29.530Z,99646.53
2023-10-18T11:29:00.344Z,99645.56
2023-10-18T11:31:29.526Z,99635.56
2023-10-18T11:34:06.437Z,99628.09
2023-10-18T11:36:35.893Z,99623.09
2023-10-18T11:39:19.688Z,99620.88
2023-10-18T11:41:54.349Z,99618.41
2023-10-18T11:44:34.274Z,99616.50
2023-10-18T11:47:12.837Z,99616.06
2023-10-18T11:49:43.120Z,99613.94
2023-10-18T11:52:17.973Z,99605.53
2023-10-18T11:54:48.624Z,99593.66
2023-10-18T11:57:30.552Z,99593.34
2023-10-18T12:00:21.535Z,99575.44
2023-10-18T12:02:50.144Z,99573.56
2023-10-18T12:05:25.236Z,99577.03
2023-10-18T12:07:55.262Z,99568.44
2023-10-18T12:10:36.164Z,99568.97
2023-10-18T12:13:13.706Z,99565.88
2023-10-18T12:15:45.256Z,99569.91
2023-10-18T12:18:15.825Z,99560.53
2023-10-18T12:20:48.049Z,99556.34
2023-10-18T12:23:20.892Z,99550.66
2023-10-18T12:25:51.019Z,99541.34
2023-10-18T12:28:29.307Z,99529.75
2023-10-18T12:31:02.698Z,99525.16
2023-10-18T12:33:34.635Z,99525.94
2023-10-18T12:36:03.079Z,99507.53
2023-10-18T12:38:34.268Z,99507.91
2023-10-18T12:41:07.282Z,99512.28
2023-10-18T12:43:40.525Z,99508.66
2023-10-18T12:46:12.631Z,99508.38
2023-10-18T12:48:42.208Z,99491.44
2023-10-18T12:51:13.084Z,99480.25
2023-10-18T12:53:47.856Z,99470.78
2023-10-18T12:56:37.115Z,99463.22
2023-10-18T12:59:25.455Z,99471.28
2023-10-18T13:02:00.216Z,99460.03
2023-10-18T13:04:28.411Z,99454.44
2023-10-18T13:06:57.050Z,99452.97
2023-10-18T13:09:26.040Z,99441.63
2023-10-18T13:12:01.907Z,99448.25
2023-10-18T13:14:35.571Z,99451.47
2023-10-18T13:17:07.162Z,99445.66
2023-10-18T13:19:39.987Z,99448.13
2023-10-18T13:22:17.751Z,99447.72
2023-10-18T13:24:46.163Z,99447.63
2023-10-18T13:27:16.844Z,99436.44
2023-10-18T13:30:01.751Z,99444.91
2023-10-18T13:32:31.225Z,99449.06
2023-10-18T13:35:03.925Z,99437.38
2023-10-18T13:37:32.524Z,99442.03
2023-10-18T13:40:00.794Z,99437.06
2023-10-18T13:42:29.038Z,99439.53
2023-10-18T13:44:58.885Z,99431.56
2023-10-18T13:47:28.649Z,99432.78
2023-10-18T13:49:57.501Z,99437.63
2023-10-18T13:52:27.062Z,99425.09
2023-10-18T13:54:56.635Z,99419.38
2023-10-18T13:57:24.908Z,99418.75
2023-10-18T13:59:53.201Z,99413.63
2023-10-18T14:02:27.414Z,99409.47
2023-10-18T14:04:56.168Z,99404.41
2023-10-18T14:07:25.823Z,99397.47
2023-10-18T14:09:56.572Z,99390.44
2023-10-18T14:12:26.113Z,99406.59
2023-10-18T14:14:54.910Z,99397.59
2023-10-18T14:17:25.082Z,99394.06
2023-10-18T14:20:04.842Z,99392.13
2023-10-18T14:22:43.731Z,99379.56
2023-10-18T14:25:14.974Z,99387.03
2023-10-18T14:27:44.542Z,99386.47
2023-10-18T14:30:14.929Z,99381.84
2023-10-18T14:32:45.007Z,99375.13
2023-10-18T14:35:14.450Z,99362.41
2023-10-18T14:37:43.450Z,99367.16
2023-10-18T14:40:12.844Z,99362.88
2023-10-18T14:42:43.784Z,99355.72
2023-10-18T14:45:15.831Z,99357.88
2023-10-18T14:47:45.788Z,99353.00
2023-10-18T14:50:15.915Z,99343.63
2023-10-18T14:52:44.823Z,99346.56
2023-10-18T14:55:13.508Z,99348.56
2023-10-18T14:57:42.506Z,99342.25
2023-10-18T15:00:13.195Z,99323.06
2023-10-18T15:02:42.550Z,99316.03
2023-10-18T15:05:15.496Z,99317.28
2023-10-18T15:07:44.849Z,99314.25
2023-10-18T15:10:15.537Z,99307.81
2023-10-18T15:12:44.374Z,99297.66
2023-10-18T15:15:15.351Z,99290.84
2023-10-18T15:17:45.195Z,99280.31
2023-10-18T15:20:16.570Z,99267.94
2023-10-18T15:22:46.743Z,99262.00
2023-10-18T15:25:18.069Z,99261.13
2023-10-18T15:27:48.739Z,99253.03
2023-10-18T15:30:18.763Z,99261.91
2023-10-18T15:32:47.306Z,99254.09
2023-10-18T15:35:18.612Z,99262.47
2023-10-18T15:37:47.088Z,99255.22
2023-10-18T15:40:16.861Z,99260.44
2023-10-18T15:42:45.937Z,99242.59
2023-10-18T15:45:19.618Z,99249.53
2023-10-18T15:47:48.001Z,99243.88
2023-10-18T15:50:20.315Z,99242.81
2023-10-18T15:52:48.826Z,99245.59
2023-10-18T15:55:17.166Z,99238.34
2023-10-18T15:57:45.635Z,99237.31
2023-10-18T16:00:25.086Z,99232.84
2023-10-18T16:02:55.199Z,99228.84
2023-10-18T16:05:26.726Z,99231.41
2023-10-18T16:07:55.759Z,99240.16
2023-10-18T16:10:25.060Z,99239.94
2023-10-18T16:12:53.876Z,99232.66
2023-10-18T16:15:25.257Z,99230.75
2023-10-18T16:17:54.093Z,99218.56
2023-10-18T16:20:25.488Z,99221.34
2023-10-18T16:22:54.389Z,99225.38
2023-10-18T16:25:24.888Z,99219.69
2023-10-18T16:27:53.255Z,99221.75
2023-10-18T16:30:22.514Z,99214.22
2023-10-18T16:32:51.249Z,99216.88
2023-10-18T16:35:19.639Z,99213.75
2023-10-18T16:37:50.461Z,99207.22
2023-10-18T16:40:19.558Z,99211.31
2023-10-18T16:42:48.727Z,99208.91
2023-10-18T16:45:18.014Z,99197.28
2023-10-18T16:47:46.640Z,99198.63
2023-10-18T16:50:17.375Z,99208.91
2023-10-18T16:52:46.946Z,99202.97
2023-10-18T16:55:19.199Z,99204.78
2023-10-18T16:57:49.812Z,99194.53
2023-10-18T17:00:19.549Z,99191.50
2023-10-18T17:02:53.748Z,99192.09
2023-10-18T17:05:25.387Z,99201.22
2023-10-18T17:07:54.328Z,99203.03
2023-10-18T17:10:25.707Z,99202.06
2023-10-18T17:12:55.130Z,99198.41
2023-10-18T17:15:23.378Z,99193.00
2023-10-18T17:17:52.305Z,99195.38
2023-10-18T17:20:21.607Z,99191.78
2023-10-18T17:22:50.223Z,99189.50
2023-10-18T17:25:18.988Z,99193.00
2023-10-18T17:27:50.122Z,99196.13
2023-10-18T17:30:20.904Z,99186.81
2023-10-18T17:32:50.627Z,99184.84
2023-10-18T17:35:19.422Z,99180.75
2023-10-18T17:37:48.795Z,99180.38
2023-10-18T17:40:20.265Z,99171.78
2023-10-18T17:42:51.343Z,99175.28
2023-10-18T17:45:21.234Z,99165.84
2023-10-18T17:47:50.375Z,99167.09
2023-10-18T17:50:22.612Z,99153.28
2023-10-18T17:52:52.342Z,99154.97
2023-10-18T17:55:22.628Z,99142.41
2023-10-18T17:57:59.328Z,99139.88
2023-10-18T18:00:28.941Z,99125.84
2023-10-18T18:03:00.609Z,99121.47
2023-10-18T18:05:32.531Z,99128.13
2023-10-18T18:08:02.766Z,99117.47
2023-10-18T18:10:31.989Z,99120.38
2023-10-18T18:13:02.556Z,99110.31
2023-10-18T18:15:30.990Z,99103.78
2023-10-18T18:18:03.238Z,99100.78
2023-10-18T18:20:33.489Z,99104.28
2023-10-18T18:23:02.571Z,99106.94
2023-10-18T18:25:30.864Z,99095.69
2023-10-18T18:28:02.181Z,99097.88
2023-10-18T18:30:32.969Z,99093.19
2023-10-18T18:33:01.731Z,99083.16
2023-10-18T18:35:30.222Z,99093.09
2023-10-18T18:37:58.428Z,99079.78
2023-10-18T18:40:28.272Z,99076.03
2023-10-18T18:42:56.688Z,99064.56
2023-10-18T18:45:25.391Z,99053.81
2023-10-18T18:47:57.721Z,99055.50
2023-10-18T18:50:26.488Z,99052.34
2023-10-18T18:52:55.445Z,99054.19
2023-10-18T18:55:24.282Z,99051.75
2023-10-18T18:57:53.040Z,99033.50
2023-10-18T19:00:23.418Z,99037.50
2023-10-18T19:02:54.750Z,99017.06
2023-10-18T19:05:25.860Z,99024.31
2023-10-18T19:07:55.039Z,99024.91
2023-10-18T19:10:23.942Z,99025.50
2023-10-18T19:12:52.649Z,99027.22
2023-10-18T19:15:22.959Z,99024.56
2023-10-18T19:17:52.903Z,99032.91
2023-10-18T19:20:22.363Z,99026.84
2023-10-18T19:22:52.737Z,99030.00
2023-10-18T19:25:21.943Z,99032.03
2023-10-18T19:27:50.374Z,99041.91
2023-10-18T19:30:20.854Z,99037.66
2023-10-18T19:32:49.167Z,99052.19
2023-10-18T19:35:18.396Z,99045.50
2023-10-18T19:37:48.731Z,99045.00
2023-10-18T19:40:18.506Z,99046.81
2023-10-18T19:42:46.731Z,99050.19
2023-10-18T19:45:19.387Z,99039.53
2023-10-18T19:47:48.016Z,99040.25
2023-10-18T19:50:17.705Z,99046.06
2023-10-18T19:52:46.157Z,99046.06
2023-10-18T19:55:14.811Z,99037.56
2023-10-18T19:57:44.760Z,99035.50
2023-10-18T20:00:16.589Z,99031.28
2023-10-18T20:02:45.390Z,99037.19
2023-10-18T20:05:15.590Z,99028.72
2023-10-18T20:07:44.137Z,99032.56
2023-10-18T20:10:14.460Z,99029.56
2023-10-18T20:12:44.438Z,99036.50
2023-10-18T20:15:13.492Z,99024.91
2023-10-18T20:17:42.352Z,99028.94
2023-10-18T20:20:11.308Z,99025.59
2023-10-18T20:22:40.964Z,99025.09
2023-10-18T20:25:14.441Z,99031.44
2023-10-18T20:27:44.335Z,99017.66
2023-10-18T20:30:15.572Z,99014.50
2023-10-18T20:32:45.979Z,99011.38
2023-10-18T20:35:14.877Z,99011.13
2023-10-18T20:37:43.777Z,99019.84
2023-10-18T20:40:13.282Z,99027.09
2023-10-18T20:42:42.719Z,99022.88
2023-10-18T20:45:17.134Z,99019.69
2023-10-18T20:47:49.076Z,99019.22
2023-10-18T20:50:20.130Z,99013.88
2023-10-18T20:52:48.559Z,99013.03
2023-10-18T20:55:21.206Z,99010.34
2023-10-18T20:57:49.495Z,99005.75
2023-10-18T21:00:24.572Z,98999.94
2023-10-18T21:02:53.231Z,99011.06
2023-10-18T21:05:29.174Z,99006.34
2023-10-18T21:07:58.798Z,99004.97
2023-10-18T21:10:30.757Z,99005.31
2023-10-18T21:13:00.069Z,98999.28
2023-10-18T21:15:32.050Z,98992.59
2023-10-18T21:18:00.920Z,98988.97
2023-10-18T21:20:30.255Z,98973.84
2023-10-18T21:23:00.507Z,98965.41
2023-10-18T21:25:29.818Z,98956.84
2023-10-18T21:27:58.099Z,98945.47
2023-10-18T21:30:27.359Z,98941.38
2023-10-18T21:32:57.462Z,98946.53
2023-10-18T21:35:27.472Z,98931.94
2023-10-18T21:37:55.670Z,98928.59
2023-10-18T21:40:25.798Z,98937.50
2023-10-18T21:42:54.913Z,98937.13
2023-10-18T21:45:23.772Z,98935.56
2023-10-18T21:47:53.120Z,98934.84
2023-10-18T21:50:22.997Z,98937.75
2023-10-18T21:52:51.221Z,98937.03
2023-10-18T21:55:19.811Z,98936.41
2023-10-18T21:57:48.160Z,98925.31
2023-10-18T22:00:33.616Z,98924.72
2023-10-18T22:03:03.415Z,98929.75
2023-10-18T22:05:34.097Z,98926.13
2023-10-18T22:08:03.419Z,98938.69
2023-10-18T22:10:43.015Z,98938.06
2023-10-18T22:13:11.387Z,98930.97
2023-10-18T22:15:48.294Z,98931.69
2023-10-18T22:18:17.866Z,98931.69
2023-10-18T22:20:48.711Z,98930.72
2023-10-18T22:23:17.015Z,98929.38
2023-10-18T22:26:02.045Z,98923.84
2023-10-18T22:28:36.777Z,98913.59
2023-10-18T22:31:07.619Z,98916.94
2023-10-18T22:33:37.330Z,98909.97
2023-10-18T22:36:11.020Z,98913.47
2023-10-18T22:38:41.660Z,98911.53
2023-10-18T22:41:14.142Z,98908.16
2023-10-18T22:43:43.058Z,98909.75
2023-10-18T22:46:34.184Z,98897.31
2023-10-18T22:49:10.347Z,98898.19
2023-10-18T22:51:46.148Z,98889.97
2023-10-18T22:54:14.811Z,98883.22
2023-10-18T22:56:55.373Z,98881.19
2023-10-18T22:59:23.936Z,98878.53
2023-10-18T23:01:52.893Z,98877.91
2023-10-18T23:04:25.741Z,98877.47
2023-10-18T23:06:58.596Z,98882.28
2023-10-18T23:09:28.622Z,98880.97
2023-10-18T23:11:59.124Z,98876.50
2023-10-18T23:14:29.486Z,98877.22
2023-10-18T23:17:12.516Z,98877.47
2023-10-18T23:19:46.407Z,98871.94
2023-10-18T23:22:17.300Z,98874.84
2023-10-18T23:24:47.641Z,98874.97
2023-10-18T23:27:34.360Z,98861.91
2023-10-18T23:30:16.369Z,98854.06
2023-10-18T23:32:55.825Z,98847.06
2023-10-18T23:35:28.100Z,98848.16
2023-10-18T23:38:04.089Z,98848.88
2023-10-18T23:40:53.169Z,98844.63
2023-10-18T23:43:36.122Z,98841.50
2023-10-18T23:46:25.764Z,98852.75
2023-10-18T23:49:11.767Z,98864.56
2023-10-18T23:51:40.778Z,98851.91
2023-10-18T23:54:09.458Z,98841.88
2023-10-18T23:56:41.246Z,98849.59
2023-10-18T23:59:14.640Z,98841.50
